»·PEaware :: SWA4911 KHOU-KOKC

SWA4911 :: KHOU-KOKC

FLIGHT INFORMATION

Flight Status: Arrived
Operator:
Southwest Airlines
More flights by this operator :: More flights under this callsign
Pilot: Andrew J. (13363)
Aircraft: BOEING 737-300
(B733)
More flights by this aircraft type
Origin: KHOU Hobby
United States
Destination: KOKC Will Rogers World
United States
More flights between these airports :: More routes between these airports
Route: STYCK4 DOLEY ZEMMA TSDEL2
File this flight plan on PilotEdge
Remarks:
Altitude:
(Current/Filed)
34,000ft
Speed:
(Current/Filed)
460kts
Departed: 03-Jun-17 08:51 PM
Arrived: 03-Jun-17 10:10 PM
Distance/Time
Traveled:
364nm/1:19
Distance/Time
To Go:
Arrived

Flight Plot

Page will automatically refresh every two minutes.

Flight plan parsing failed; only flown route is shown


Map Options




Map Legend


Flown Route
Filed Route
Departure Airport
Arrival Airport
Navaid (VOR, NDB)
Fix

Horizontal Profiles

Position Reports

Time Latitude Longitude Heading Altitude Ground
Speed
03-Jun-17 20:49 29.653905 -95.277920 156 49ft 0kts
03-Jun-17 20:50 29.653589 -95.278371 248 49ft 6kts
03-Jun-17 20:51 29.653324 -95.281848 254 49ft 16kts
03-Jun-17 20:52 29.650638 -95.285149 136 49ft 21kts
03-Jun-17 20:53 29.627705 -95.258309 135 735ft 169kts
03-Jun-17 20:54 29.596556 -95.209948 92 3029ft 208kts
03-Jun-17 20:55 29.647802 -95.193624 307 5079ft 275kts
03-Jun-17 20:56 29.696658 -95.261651 335 8416ft 289kts
03-Jun-17 20:57 29.777392 -95.289730 341 10589ft 342kts
03-Jun-17 20:58 29.870899 -95.322932 341 13538ft 363kts
03-Jun-17 20:59 29.968694 -95.357986 340 16419ft 378kts
03-Jun-17 21:00 30.052999 -95.420333 290 19007ft 378kts
03-Jun-17 21:01 30.023799 -95.525308 211 21450ft 381kts
03-Jun-17 21:02 29.918396 -95.526397 172 23692ft 402kts
03-Jun-17 21:03 29.807900 -95.502886 172 25792ft 413kts
03-Jun-17 21:04 29.694555 -95.478737 172 27731ft 424kts
03-Jun-17 21:05 29.580702 -95.454343 172 30173ft 416kts
03-Jun-17 21:06 29.468513 -95.430081 172 32225ft 412kts
03-Jun-17 21:07 29.357436 -95.405486 165 33872ft 414kts
03-Jun-17 21:08 29.289076 -95.305059 95 33968ft 445kts
03-Jun-17 21:09 29.347559 -95.187637 25 33970ft 457kts
03-Jun-17 21:10 29.469254 -95.157619 6 33973ft 454kts
03-Jun-17 21:11 29.590479 -95.182053 342 33973ft 446kts
03-Jun-17 21:12 29.709116 -95.218408 342 33940ft 445kts
03-Jun-17 21:13 29.824879 -95.261294 317 33931ft 435kts
03-Jun-17 21:14 29.922690 -95.340443 337 33948ft 444kts
03-Jun-17 21:15 30.038892 -95.383215 339 33960ft 444kts
03-Jun-17 21:16 30.151425 -95.434377 330 33963ft 438kts
03-Jun-17 21:17 30.259913 -95.496008 330 33939ft 437kts
03-Jun-17 21:18 30.368886 -95.557557 330 33943ft 438kts
03-Jun-17 21:19 30.477712 -95.619072 330 33969ft 438kts
03-Jun-17 21:20 30.583005 -95.677468 331 33968ft 438kts
03-Jun-17 21:21 30.693524 -95.736492 331 33970ft 438kts
03-Jun-17 21:22 30.803609 -95.795407 331 33969ft 438kts
03-Jun-17 21:23 30.914028 -95.854656 331 33969ft 438kts
03-Jun-17 21:24 31.024049 -95.913839 331 33968ft 438kts
03-Jun-17 21:25 31.124463 -95.967745 334 33930ft 440kts
03-Jun-17 21:26 31.239593 -96.012680 338 33971ft 441kts
03-Jun-17 21:27 31.355700 -96.057643 338 33970ft 440kts
03-Jun-17 21:28 31.471342 -96.102596 338 33970ft 441kts
03-Jun-17 21:29 31.586775 -96.147577 338 33966ft 438kts
03-Jun-17 21:30 31.702134 -96.192655 338 33971ft 439kts
03-Jun-17 21:31 31.817075 -96.237682 338 33968ft 439kts
03-Jun-17 21:32 31.932775 -96.283128 338 33970ft 439kts
03-Jun-17 21:33 32.047681 -96.328380 338 33968ft 438kts
03-Jun-17 21:34 32.161419 -96.373184 338 33969ft 438kts
03-Jun-17 21:35 32.278707 -96.408803 344 33970ft 441kts
03-Jun-17 21:36 32.397747 -96.440743 343 33969ft 440kts
03-Jun-17 21:37 32.516565 -96.472848 343 33969ft 440kts
03-Jun-17 21:38 32.634678 -96.504850 343 33970ft 440kts
03-Jun-17 21:39 32.753575 -96.537149 343 33969ft 440kts
03-Jun-17 21:40 32.871638 -96.569312 343 33969ft 440kts
03-Jun-17 21:41 32.990605 -96.601806 343 33970ft 439kts
03-Jun-17 21:42 33.106978 -96.633682 343 33958ft 440kts
03-Jun-17 21:43 33.220969 -96.665074 343 33973ft 439kts
03-Jun-17 21:44 33.339637 -96.697845 343 33968ft 439kts
03-Jun-17 21:45 33.457211 -96.730310 343 33993ft 438kts
03-Jun-17 21:46 33.575870 -96.763168 343 33997ft 438kts
03-Jun-17 21:47 33.693970 -96.795964 343 33996ft 438kts
03-Jun-17 21:48 33.811736 -96.828760 343 33995ft 438kts
03-Jun-17 21:49 33.930187 -96.861840 342 33997ft 438kts
03-Jun-17 21:50 34.048102 -96.894862 342 33995ft 437kts
03-Jun-17 21:51 34.165428 -96.927781 343 32165ft 465kts
03-Jun-17 21:52 34.286076 -96.961671 342 30587ft 437kts
03-Jun-17 21:53 34.400248 -96.998978 328 28519ft 414kts
03-Jun-17 21:54 34.499219 -97.063407 328 26352ft 402kts
03-Jun-17 21:55 34.596766 -97.125778 328 24139ft 391kts
03-Jun-17 21:56 34.691116 -97.186192 328 21991ft 379kts
03-Jun-17 21:57 34.782724 -97.245157 326 19412ft 370kts
03-Jun-17 21:58 34.868444 -97.309372 325 17161ft 351kts
03-Jun-17 21:59 34.946492 -97.368469 324 15930ft 314kts
03-Jun-17 22:00 35.019401 -97.424013 324 14671ft 311kts
03-Jun-17 22:01 35.095472 -97.468202 353 13275ft 312kts
03-Jun-17 22:02 35.177081 -97.473156 354 11788ft 301kts
03-Jun-17 22:03 35.258608 -97.478332 354 10131ft 293kts
03-Jun-17 22:04 35.338055 -97.483442 354 8667ft 281kts
03-Jun-17 22:05 35.415019 -97.486679 357 7131ft 276kts
03-Jun-17 22:06 35.490640 -97.488724 354 5637ft 270kts
03-Jun-17 22:07 35.559722 -97.506373 308 4465ft 249kts
03-Jun-17 22:08 35.549002 -97.574517 205 3887ft 226kts
03-Jun-17 22:09 35.493104 -97.589144 180 3062ft 200kts
03-Jun-17 22:10 35.444306 -97.588632 180 2100ft 154kts
03-Jun-17 22:11 35.403087 -97.588935 180 1311ft 145kts
03-Jun-17 22:12 35.388724 -97.590635 0 1300ft 20kts
03-Jun-17 22:13 35.392165 -97.592358 270 1300ft 15kts
03-Jun-17 22:14 35.392493 -97.598472 21 1300ft 9kts
03-Jun-17 22:15 35.394811 -97.598497 0 1300ft 2kts
03-Jun-17 22:16 35.394827 -97.598497 0 1300ft 0kts
03-Jun-17 22:17 35.394827 -97.598497 0 1300ft 0kts
03-Jun-17 22:18 35.407006 -97.588915 180 1354ft 143kts
03-Jun-17 22:19 35.406823 -97.588916 180 1351ft 143kts
03-Jun-17 22:20 35.408246 -97.588906 180 1369ft 143kts
03-Jun-17 22:21 35.404860 -97.588926 180 1330ft 144kts
03-Jun-17 22:22 35.392324 -97.588959 179 1300ft 79kts
03-Jun-17 22:23 35.394827 -97.598497 0 1300ft 0kts

Navigation Log

Ident Type
Flight plan parsing failed, navigation log unavailable